»·PEaware :: WAT380 KRDD-KSNA

WAT380 :: KRDD-KSNA

FLIGHT INFORMATION

Flight Status: Arrived
Operator:
Walker Air Transport
More flights by this operator :: More flights under this callsign
Pilot: Spencer M. (27733)
Aircraft: DASSAULT AVIATION FALCON 50
(FA50)
More flights by this aircraft type
Origin: KRDD Redding Mun
United States
Destination: KSNA John Wayne-Orange Co
United States
More flights between these airports :: More routes between these airports
Route: HOMAN3 RBL NIECE J501 BSR TILLT TILLT2
File this flight plan on PilotEdge
Remarks:
Altitude:
(Current/Filed)
33,000ft
Speed:
(Current/Filed)
450kts
Departed: 10-Jan-21 04:56 PM
Arrived: 10-Jan-21 06:27 PM
Distance/Time
Traveled:
462nm/1:31
Distance/Time
To Go:
Arrived

Flight Plot

Page will automatically refresh every two minutes.

Flight plan parsing failed; only flown route is shown


Map Options




Map Legend


Flown Route
Filed Route
Departure Airport
Arrival Airport
Navaid (VOR, NDB)
Fix

Horizontal Profiles

Position Reports

Time Latitude Longitude Heading Altitude Ground
Speed
10-Jan-21 16:37 40.508902 -122.299200 360 509ft 0kts
10-Jan-21 16:38 40.508902 -122.299200 360 509ft 0kts
10-Jan-21 16:39 40.508902 -122.299200 360 509ft 0kts
10-Jan-21 16:40 40.508902 -122.299200 360 509ft 0kts
10-Jan-21 16:41 40.508902 -122.299200 360 509ft 0kts
10-Jan-21 16:42 40.508902 -122.299200 360 509ft 0kts
10-Jan-21 16:43 40.508902 -122.299200 360 509ft 0kts
10-Jan-21 16:44 40.508902 -122.299200 360 509ft 0kts
10-Jan-21 16:45 40.508902 -122.299200 360 509ft 0kts
10-Jan-21 16:46 40.508902 -122.299200 360 509ft 0kts
10-Jan-21 16:47 40.509004 -122.299146 41 509ft 3kts
10-Jan-21 16:48 40.508180 -122.298423 216 509ft 6kts
10-Jan-21 16:49 40.507924 -122.297809 43 509ft 2kts
10-Jan-21 16:50 40.512796 -122.296292 0 509ft 25kts
10-Jan-21 16:51 40.518478 -122.296290 359 509ft 15kts
10-Jan-21 16:52 40.520214 -122.295946 70 509ft 0kts
10-Jan-21 16:53 40.520214 -122.295946 70 509ft 0kts
10-Jan-21 16:54 40.520062 -122.294970 143 509ft 8kts
10-Jan-21 16:55 40.493558 -122.294862 175 1253ft 173kts
10-Jan-21 16:56 40.463605 -122.243832 117 3704ft 197kts
10-Jan-21 16:57 40.434187 -122.177463 128 6689ft 201kts
10-Jan-21 16:58 40.387028 -122.143160 180 9597ft 203kts
10-Jan-21 16:59 40.329475 -122.154561 204 12477ft 237kts
10-Jan-21 17:00 40.254981 -122.182158 200 14988ft 324kts
10-Jan-21 17:01 40.158087 -122.215930 200 17350ft 386kts
10-Jan-21 17:02 40.056252 -122.264076 212 20315ft 397kts
10-Jan-21 17:03 39.955307 -122.329755 211 22818ft 415kts
10-Jan-21 17:04 39.850429 -122.397619 211 24965ft 430kts
10-Jan-21 17:05 39.740262 -122.468654 211 26486ft 449kts
10-Jan-21 17:06 39.628765 -122.540139 212 28571ft 447kts
10-Jan-21 17:07 39.518031 -122.610989 212 30489ft 444kts
10-Jan-21 17:08 39.407531 -122.681444 212 32281ft 442kts
10-Jan-21 17:09 39.297243 -122.751608 212 33349ft 456kts
10-Jan-21 17:10 39.179327 -122.826393 211 33339ft 486kts
10-Jan-21 17:11 39.047120 -122.877169 184 33336ft 519kts
10-Jan-21 17:12 38.901935 -122.875642 183 33330ft 526kts
10-Jan-21 17:13 38.756697 -122.874284 183 33318ft 528kts
10-Jan-21 17:14 38.609867 -122.872854 182 33320ft 529kts
10-Jan-21 17:15 38.462922 -122.871421 182 33321ft 530kts
10-Jan-21 17:16 38.315830 -122.869993 182 33326ft 530kts
10-Jan-21 17:17 38.168223 -122.868567 182 33333ft 531kts
10-Jan-21 17:19 38.024114 -122.830775 154 33336ft 540kts
10-Jan-21 17:20 37.890947 -122.742678 152 33332ft 540kts
10-Jan-21 17:21 37.758220 -122.654883 152 33311ft 539kts
10-Jan-21 17:22 37.625641 -122.567817 152 33311ft 539kts
10-Jan-21 17:23 37.493010 -122.481093 152 33313ft 539kts
10-Jan-21 17:24 37.359846 -122.394369 152 33316ft 539kts
10-Jan-21 17:25 37.227048 -122.308234 152 33312ft 539kts
10-Jan-21 17:26 37.093800 -122.222154 152 33314ft 539kts
10-Jan-21 17:27 36.961023 -122.136715 152 33316ft 538kts
10-Jan-21 17:28 36.828099 -122.051525 152 33302ft 537kts
10-Jan-21 17:29 36.695219 -121.966704 151 33301ft 537kts
10-Jan-21 17:30 36.562799 -121.882501 151 33304ft 537kts
10-Jan-21 17:31 36.430156 -121.798480 151 33312ft 537kts
10-Jan-21 17:32 36.297022 -121.714477 151 33314ft 536kts
10-Jan-21 17:33 36.166405 -121.626899 145 33316ft 535kts
10-Jan-21 17:33 36.065388 -121.539453 141 33317ft 533kts
10-Jan-21 17:35 35.925156 -121.414298 141 33299ft 533kts
10-Jan-21 17:36 35.804791 -121.308026 142 33250ft 532kts
10-Jan-21 17:37 35.684691 -121.202454 142 33253ft 531kts
10-Jan-21 17:37 35.584782 -121.114934 142 33254ft 531kts
10-Jan-21 17:38 35.465402 -121.009382 140 33252ft 527kts
10-Jan-21 17:39 35.354470 -120.894170 135 33240ft 523kts
10-Jan-21 17:40 35.245916 -120.776275 136 33249ft 520kts
10-Jan-21 17:41 35.139951 -120.662467 136 33247ft 495kts
10-Jan-21 17:42 35.037663 -120.556714 141 33250ft 474kts
10-Jan-21 17:43 34.928367 -120.466183 145 33255ft 476kts
10-Jan-21 17:44 34.818143 -120.377413 145 33245ft 475kts
10-Jan-21 17:45 34.708159 -120.288828 146 33243ft 474kts
10-Jan-21 17:46 34.598352 -120.200833 146 33243ft 474kts
10-Jan-21 17:47 34.490161 -120.114475 146 32035ft 443kts
10-Jan-21 17:48 34.391531 -120.035994 145 30721ft 411kts
10-Jan-21 17:49 34.298457 -119.962121 145 29424ft 399kts
10-Jan-21 17:50 34.205130 -119.888221 145 28068ft 406kts
10-Jan-21 17:51 34.110690 -119.813659 145 26783ft 397kts
10-Jan-21 17:52 34.041518 -119.718884 117 25654ft 371kts
10-Jan-21 17:53 33.990917 -119.617363 118 22720ft 347kts
10-Jan-21 17:54 33.941315 -119.518589 119 21218ft 334kts
10-Jan-21 17:55 33.892746 -119.422150 118 20974ft 346kts
10-Jan-21 17:56 33.842786 -119.320435 119 18921ft 358kts
10-Jan-21 17:57 33.792457 -119.218400 119 16910ft 354kts
10-Jan-21 17:58 33.742499 -119.117467 119 15040ft 345kts
10-Jan-21 17:59 33.694380 -119.020521 119 13169ft 338kts
10-Jan-21 18:00 33.646459 -118.924230 118 11078ft 328kts
10-Jan-21 18:01 33.601103 -118.833320 118 10976ft 321kts
10-Jan-21 18:02 33.564887 -118.735106 98 10360ft 325kts
10-Jan-21 18:03 33.548578 -118.631613 97 8602ft 298kts
10-Jan-21 18:04 33.533563 -118.538513 98 7576ft 276kts
10-Jan-21 18:05 33.521242 -118.449181 90 6977ft 271kts
10-Jan-21 18:06 33.518904 -118.357998 89 5871ft 277kts
10-Jan-21 18:07 33.537637 -118.270118 67 4971ft 261kts
10-Jan-21 18:08 33.562604 -118.193121 67 5004ft 243kts
10-Jan-21 18:09 33.599127 -118.121320 54 5005ft 265kts
10-Jan-21 18:10 33.637969 -118.054402 55 4989ft 222kts
10-Jan-21 18:11 33.669895 -117.996189 45 4990ft 202kts
10-Jan-21 18:12 33.716715 -117.959330 31 4990ft 202kts
10-Jan-21 18:13 33.764524 -117.923418 31 4991ft 206kts
10-Jan-21 18:14 33.814492 -117.885910 31 4984ft 212kts
10-Jan-21 18:15 33.863370 -117.849176 31 4981ft 204kts
10-Jan-21 18:16 33.911265 -117.813134 31 4980ft 201kts
10-Jan-21 18:17 33.955753 -117.774553 68 4951ft 197kts
10-Jan-21 18:18 33.947097 -117.707251 104 4270ft 200kts
10-Jan-21 18:19 33.910884 -117.709932 233 4559ft 172kts
10-Jan-21 18:20 33.871103 -117.744576 202 4079ft 183kts
10-Jan-21 18:21 33.826632 -117.770690 209 3155ft 172kts
10-Jan-21 18:22 33.789569 -117.796198 211 2670ft 143kts
10-Jan-21 18:23 33.755031 -117.818405 207 1704ft 138kts
10-Jan-21 18:24 33.722024 -117.839874 206 1015ft 133kts
10-Jan-21 18:25 33.690563 -117.859502 206 295ft 125kts
10-Jan-21 18:26 33.668383 -117.873385 197 63ft 12kts
10-Jan-21 18:27 33.667556 -117.872852 95 63ft 3kts
10-Jan-21 18:28 33.669584 -117.870450 37 63ft 15kts
10-Jan-21 18:29 33.671960 -117.867007 56 63ft 11kts

Navigation Log

Ident Type
Flight plan parsing failed, navigation log unavailable